sensor_id;sensor_type;location;lat;lon;timestamp;pressure;altitude;pressure_sealevel;temperature;humidity
10135;BME280;5107;48.850;8.924;2023-02-24T00:02:10;96373.97;;;8.74;100.00
10135;BME280;5107;48.850;8.924;2023-02-24T00:04:40;96365.94;;;8.76;100.00
10135;BME280;5107;48.850;8.924;2023-02-24T00:07:08;96369.69;;;8.65;100.00
10135;BME280;5107;48.850;8.924;2023-02-24T00:09:37;96373.00;;;8.67;100.00
10135;BME280;5107;48.850;8.924;2023-02-24T00:12:08;96372.84;;;8.53;100.00
10135;BME280;5107;48.850;8.924;2023-02-24T00:14:39;96375.94;;;8.40;100.00
10135;BME280;5107;48.850;8.924;2023-02-24T00:17:07;96375.13;;;8.31;100.00
10135;BME280;5107;48.850;8.924;2023-02-24T00:19:36;96374.16;;;8.32;100.00
10135;BME280;5107;48.850;8.924;2023-02-24T00:22:05;96361.53;;;8.28;100.00
10135;BME280;5107;48.850;8.924;2023-02-24T00:24:33;96362.03;;;8.40;100.00
10135;BME280;5107;48.850;8.924;2023-02-24T00:27:04;96356.13;;;8.37;100.00
10135;BME280;5107;48.850;8.924;2023-02-24T00:29:36;96354.84;;;8.33;100.00
10135;BME280;5107;48.850;8.924;2023-02-24T00:32:04;96353.50;;;8.37;100.00
10135;BME280;5107;48.850;8.924;2023-02-24T00:34:34;96348.75;;;8.41;100.00
10135;BME280;5107;48.850;8.924;2023-02-24T00:37:03;96347.78;;;8.34;100.00
10135;BME280;5107;48.850;8.924;2023-02-24T00:39:32;96345.00;;;8.35;100.00
10135;BME280;5107;48.850;8.924;2023-02-24T00:42:04;96336.47;;;8.33;100.00
10135;BME280;5107;48.850;8.924;2023-02-24T00:44:33;96335.34;;;8.36;100.00
10135;BME280;5107;48.850;8.924;2023-02-24T00:47:01;96336.31;;;8.35;100.00
10135;BME280;5107;48.850;8.924;2023-02-24T00:49:30;96335.94;;;8.30;100.00
10135;BME280;5107;48.850;8.924;2023-02-24T00:51:58;96333.16;;;8.23;100.00
10135;BME280;5107;48.850;8.924;2023-02-24T00:54:25;96337.75;;;8.21;100.00
10135;BME280;5107;48.850;8.924;2023-02-24T00:56:54;96333.34;;;8.22;100.00
10135;BME280;5107;48.850;8.924;2023-02-24T00:59:23;96333.69;;;8.19;100.00
10135;BME280;5107;48.850;8.924;2023-02-24T01:01:50;96338.25;;;8.17;100.00
10135;BME280;5107;48.850;8.924;2023-02-24T01:04:19;96341.19;;;8.14;100.00
10135;BME280;5107;48.850;8.924;2023-02-24T01:06:50;96342.69;;;8.08;100.00
10135;BME280;5107;48.850;8.924;2023-02-24T01:09:26;96337.13;;;8.11;100.00
10135;BME280;5107;48.850;8.924;2023-02-24T01:11:56;96334.31;;;8.13;100.00
10135;BME280;5107;48.850;8.924;2023-02-24T01:14:46;96329.06;;;8.13;100.00
10135;BME280;5107;48.850;8.924;2023-02-24T01:17:14;96327.78;;;8.17;100.00
10135;BME280;5107;48.850;8.924;2023-02-24T01:19:44;96327.78;;;8.09;100.00
10135;BME280;5107;48.850;8.924;2023-02-24T01:22:15;96323.00;;;8.04;100.00
10135;BME280;5107;48.850;8.924;2023-02-24T01:24:43;96324.66;;;8.05;100.00
10135;BME280;5107;48.850;8.924;2023-02-24T01:27:12;96323.19;;;8.03;100.00
10135;BME280;5107;48.850;8.924;2023-02-24T01:29:40;96322.38;;;8.10;100.00
10135;BME280;5107;48.850;8.924;2023-02-24T01:32:13;96321.88;;;8.07;100.00
10135;BME280;5107;48.850;8.924;2023-02-24T01:34:43;96316.47;;;8.08;100.00
10135;BME280;5107;48.850;8.924;2023-02-24T01:37:11;96314.19;;;8.05;100.00
10135;BME280;5107;48.850;8.924;2023-02-24T01:39:42;96316.47;;;8.08;100.00
10135;BME280;5107;48.850;8.924;2023-02-24T01:42:13;96313.34;;;8.13;100.00
10135;BME280;5107;48.850;8.924;2023-02-24T01:45:17;96302.03;;;8.12;100.00
10135;BME280;5107;48.850;8.924;2023-02-24T01:47:48;96301.56;;;8.17;100.00
10135;BME280;5107;48.850;8.924;2023-02-24T01:50:18;96307.28;;;8.20;100.00
10135;BME280;5107;48.850;8.924;2023-02-24T01:52:47;96302.41;;;8.17;100.00
10135;BME280;5107;48.850;8.924;2023-02-24T01:55:20;96304.03;;;8.10;100.00
10135;BME280;5107;48.850;8.924;2023-02-24T01:57:51;96296.03;;;8.12;100.00
10135;BME280;5107;48.850;8.924;2023-02-24T02:00:20;96298.28;;;8.07;100.00
10135;BME280;5107;48.850;8.924;2023-02-24T02:03:10;96300.91;;;8.07;100.00
10135;BME280;5107;48.850;8.924;2023-02-24T02:05:40;96297.97;;;8.10;100.00
10135;BME280;5107;48.850;8.924;2023-02-24T02:08:10;96292.06;;;8.08;100.00
10135;BME280;5107;48.850;8.924;2023-02-24T02:10:40;96285.69;;;8.02;100.00
10135;BME280;5107;48.850;8.924;2023-02-24T02:13:10;96276.53;;;7.98;100.00
10135;BME280;5107;48.850;8.924;2023-02-24T02:15:47;96277.66;;;8.04;100.00
10135;BME280;5107;48.850;8.924;2023-02-24T02:18:31;96280.47;;;8.02;100.00
10135;BME280;5107;48.850;8.924;2023-02-24T02:22:03;96282.25;;;8.10;100.00
10135;BME280;5107;48.850;8.924;2023-02-24T02:24:46;96270.63;;;8.04;100.00
10135;BME280;5107;48.850;8.924;2023-02-24T02:27:46;96273.91;;;7.90;100.00
10135;BME280;5107;48.850;8.924;2023-02-24T02:34:08;96270.63;;;7.80;100.00
10135;BME280;5107;48.850;8.924;2023-02-24T02:36:53;96265.72;;;7.85;100.00
10135;BME280;5107;48.850;8.924;2023-02-24T02:39:34;96257.06;;;7.84;100.00
10135;BME280;5107;48.850;8.924;2023-02-24T02:42:15;96261.94;;;7.79;100.00
10135;BME280;5107;48.850;8.924;2023-02-24T02:44:53;96253.94;;;7.73;100.00
10135;BME280;5107;48.850;8.924;2023-02-24T02:47:28;96260.50;;;7.69;100.00
10135;BME280;5107;48.850;8.924;2023-02-24T02:50:02;96254.59;;;7.67;100.00
10135;BME280;5107;48.850;8.924;2023-02-24T02:52:39;96255.41;;;7.67;100.00
10135;BME280;5107;48.850;8.924;2023-02-24T02:55:11;96250.50;;;7.64;100.00
10135;BME280;5107;48.850;8.924;2023-02-24T02:57:45;96250.66;;;7.62;100.00
10135;BME280;5107;48.850;8.924;2023-02-24T03:00:22;96243.28;;;7.58;100.00
10135;BME280;5107;48.850;8.924;2023-02-24T03:02:55;96241.00;;;7.55;100.00
10135;BME280;5107;48.850;8.924;2023-02-24T03:05:29;96229.22;;;7.51;100.00
10135;BME280;5107;48.850;8.924;2023-02-24T03:07:59;96229.53;;;7.48;100.00
10135;BME280;5107;48.850;8.924;2023-02-24T03:10:30;96225.78;;;7.42;100.00
10135;BME280;5107;48.850;8.924;2023-02-24T03:13:02;96230.19;;;7.42;100.00
10135;BME280;5107;48.850;8.924;2023-02-24T03:15:32;96224.97;;;7.42;100.00
10135;BME280;5107;48.850;8.924;2023-02-24T03:18:04;96233.47;;;7.44;100.00
10135;BME280;5107;48.850;8.924;2023-02-24T03:20:41;96225.28;;;7.47;100.00
10135;BME280;5107;48.850;8.924;2023-02-24T03:23:14;96221.84;;;7.46;100.00
10135;BME280;5107;48.850;8.924;2023-02-24T03:25:48;96215.47;;;7.41;100.00
10135;BME280;5107;48.850;8.924;2023-02-24T03:28:22;96218.75;;;7.35;100.00
10135;BME280;5107;48.850;8.924;2023-02-24T03:30:58;96217.94;;;7.34;100.00
10135;BME280;5107;48.850;8.924;2023-02-24T03:33:35;96218.75;;;7.35;100.00
10135;BME280;5107;48.850;8.924;2023-02-24T03:36:07;96222.34;;;7.34;100.00
10135;BME280;5107;48.850;8.924;2023-02-24T03:38:35;96221.00;;;7.30;100.00
10135;BME280;5107;48.850;8.924;2023-02-24T03:41:04;96224.59;;;7.29;100.00
10135;BME280;5107;48.850;8.924;2023-02-24T03:43:41;96222.63;;;7.22;100.00
10135;BME280;5107;48.850;8.924;2023-02-24T03:46:11;96224.59;;;7.20;100.00
10135;BME280;5107;48.850;8.924;2023-02-24T03:48:45;96219.69;;;7.17;100.00
10135;BME280;5107;48.850;8.924;2023-02-24T03:51:18;96227.69;;;7.16;100.00
10135;BME280;5107;48.850;8.924;2023-02-24T03:54:01;96227.03;;;7.14;100.00
10135;BME280;5107;48.850;8.924;2023-02-24T03:56:45;96224.25;;;7.15;100.00
10135;BME280;5107;48.850;8.924;2023-02-24T03:59:31;96228.38;;;7.18;100.00
10135;BME280;5107;48.850;8.924;2023-02-24T04:02:05;96225.91;;;7.24;100.00
10135;BME280;5107;48.850;8.924;2023-02-24T04:04:45;96225.75;;;7.26;100.00
10135;BME280;5107;48.850;8.924;2023-02-24T04:07:38;96226.06;;;7.23;100.00
10135;BME280;5107;48.850;8.924;2023-02-24T04:10:15;96217.09;;;7.26;100.00
10135;BME280;5107;48.850;8.924;2023-02-24T04:12:51;96218.72;;;7.18;100.00
10135;BME280;5107;48.850;8.924;2023-02-24T04:15:23;96213.97;;;7.14;100.00
10135;BME280;5107;48.850;8.924;2023-02-24T04:17:56;96217.91;;;7.18;100.00
10135;BME280;5107;48.850;8.924;2023-02-24T04:20:31;96211.34;;;7.22;100.00
10135;BME280;5107;48.850;8.924;2023-02-24T04:23:06;96208.28;;;7.27;100.00
10135;BME280;5107;48.850;8.924;2023-02-24T04:25:38;96207.75;;;7.23;100.00
10135;BME280;5107;48.850;8.924;2023-02-24T04:28:09;96209.91;;;7.28;100.00
10135;BME280;5107;48.850;8.924;2023-02-24T04:30:46;96203.34;;;7.32;100.00
10135;BME280;5107;48.850;8.924;2023-02-24T04:33:16;96209.41;;;7.24;100.00
10135;BME280;5107;48.850;8.924;2023-02-24T04:35:45;96202.22;;;7.18;100.00
10135;BME280;5107;48.850;8.924;2023-02-24T04:38:16;96204.00;;;7.09;100.00
10135;BME280;5107;48.850;8.924;2023-02-24T04:40:44;96205.94;;;7.07;100.00
10135;BME280;5107;48.850;8.924;2023-02-24T04:43:11;96201.69;;;7.06;100.00
10135;BME280;5107;48.850;8.924;2023-02-24T04:45:38;96196.16;;;7.09;100.00
10135;BME280;5107;48.850;8.924;2023-02-24T04:48:06;96194.16;;;7.03;100.00
10135;BME280;5107;48.850;8.924;2023-02-24T04:50:39;96185.97;;;6.98;100.00
10135;BME280;5107;48.850;8.924;2023-02-24T04:53:10;96186.63;;;6.92;100.00
10135;BME280;5107;48.850;8.924;2023-02-24T04:55:41;96184.00;;;6.92;100.00
10135;BME280;5107;48.850;8.924;2023-02-24T04:58:10;96177.13;;;6.91;100.00
10135;BME280;5107;48.850;8.924;2023-02-24T05:00:38;96172.06;;;6.90;100.00
10135;BME280;5107;48.850;8.924;2023-02-24T05:03:09;96171.59;;;6.86;100.00
10135;BME280;5107;48.850;8.924;2023-02-24T05:05:36;96166.66;;;6.83;100.00
10135;BME280;5107;48.850;8.924;2023-02-24T05:08:06;96155.22;;;6.84;100.00
10135;BME280;5107;48.850;8.924;2023-02-24T05:10:39;96158.97;;;6.81;100.00
10135;BME280;5107;48.850;8.924;2023-02-24T05:13:07;96157.50;;;6.79;100.00
10135;BME280;5107;48.850;8.924;2023-02-24T05:15:39;96156.19;;;6.75;100.00
10135;BME280;5107;48.850;8.924;2023-02-24T05:18:10;96153.56;;;6.75;100.00
10135;BME280;5107;48.850;8.924;2023-02-24T05:20:40;96138.19;;;6.72;100.00
10135;BME280;5107;48.850;8.924;2023-02-24T05:23:26;96132.97;;;6.72;100.00
10135;BME280;5107;48.850;8.924;2023-02-24T05:25:55;96130.84;;;6.67;100.00
10135;BME280;5107;48.850;8.924;2023-02-24T05:28:23;96124.28;;;6.63;100.00
10135;BME280;5107;48.850;8.924;2023-02-24T05:30:50;96125.09;;;6.56;100.00
10135;BME280;5107;48.850;8.924;2023-02-24T05:33:19;96129.31;;;6.48;100.00
10135;BME280;5107;48.850;8.924;2023-02-24T05:35:47;96131.13;;;6.56;100.00
10135;BME280;5107;48.850;8.924;2023-02-24T05:38:15;96130.69;;;6.61;100.00
10135;BME280;5107;48.850;8.924;2023-02-24T05:40:44;96120.22;;;6.61;100.00
10135;BME280;5107;48.850;8.924;2023-02-24T05:43:14;96123.47;;;6.63;100.00
10135;BME280;5107;48.850;8.924;2023-02-24T05:45:43;96116.59;;;6.62;100.00
10135;BME280;5107;48.850;8.924;2023-02-24T05:48:10;96123.63;;;6.61;100.00
10135;BME280;5107;48.850;8.924;2023-02-24T05:50:40;96118.25;;;6.63;100.00
10135;BME280;5107;48.850;8.924;2023-02-24T05:53:11;96120.03;;;6.54;100.00
10135;BME280;5107;48.850;8.924;2023-02-24T05:55:38;96114.94;;;6.44;100.00
10135;BME280;5107;48.850;8.924;2023-02-24T05:58:05;96122.94;;;6.43;100.00
10135;BME280;5107;48.850;8.924;2023-02-24T06:00:33;96113.13;;;6.45;100.00
10135;BME280;5107;48.850;8.924;2023-02-24T06:03:03;96112.50;;;6.43;100.00
10135;BME280;5107;48.850;8.924;2023-02-24T06:05:35;96109.53;;;6.38;100.00
10135;BME280;5107;48.850;8.924;2023-02-24T06:08:04;96107.56;;;6.40;100.00
10135;BME280;5107;48.850;8.924;2023-02-24T06:10:37;96105.94;;;6.39;100.00
10135;BME280;5107;48.850;8.924;2023-02-24T06:13:06;96106.09;;;6.37;100.00
10135;BME280;5107;48.850;8.924;2023-02-24T06:15:36;96105.25;;;6.29;100.00
10135;BME280;5107;48.850;8.924;2023-02-24T06:18:03;96093.97;;;6.28;100.00
10135;BME280;5107;48.850;8.924;2023-02-24T06:20:32;96097.09;;;6.32;100.00
10135;BME280;5107;48.850;8.924;2023-02-24T06:22:59;96100.38;;;6.34;100.00
10135;BME280;5107;48.850;8.924;2023-02-24T06:25:28;96100.03;;;6.37;100.00
10135;BME280;5107;48.850;8.924;2023-02-24T06:27:58;96098.44;;;6.36;100.00
10135;BME280;5107;48.850;8.924;2023-02-24T06:30:26;96100.22;;;6.35;100.00
10135;BME280;5107;48.850;8.924;2023-02-24T06:32:55;96092.53;;;6.34;100.00
10135;BME280;5107;48.850;8.924;2023-02-24T06:35:22;96088.28;;;6.33;100.00
10135;BME280;5107;48.850;8.924;2023-02-24T06:37:49;96092.03;;;6.30;100.00
10135;BME280;5107;48.850;8.924;2023-02-24T06:40:20;96086.16;;;6.36;100.00
10135;BME280;5107;48.850;8.924;2023-02-24T06:42:50;96095.63;;;6.37;100.00
10135;BME280;5107;48.850;8.924;2023-02-24T06:45:20;96088.16;;;6.42;100.00
10135;BME280;5107;48.850;8.924;2023-02-24T06:47:47;96090.78;;;6.42;100.00
10135;BME280;5107;48.850;8.924;2023-02-24T06:50:18;96084.56;;;6.43;100.00
10135;BME280;5107;48.850;8.924;2023-02-24T06:52:47;96086.53;;;6.41;100.00
10135;BME280;5107;48.850;8.924;2023-02-24T06:55:15;96079.41;;;6.68;100.00
10135;BME280;5107;48.850;8.924;2023-02-24T06:57:53;96085.94;;;7.04;100.00
10135;BME280;5107;48.850;8.924;2023-02-24T07:00:24;96084.47;;;7.34;100.00
10135;BME280;5107;48.850;8.924;2023-02-24T07:03:06;96088.56;;;7.12;100.00
10135;BME280;5107;48.850;8.924;2023-02-24T07:05:47;96082.69;;;7.02;100.00
10135;BME280;5107;48.850;8.924;2023-02-24T07:08:17;96088.06;;;7.01;100.00
10135;BME280;5107;48.850;8.924;2023-02-24T07:10:52;96087.25;;;6.92;100.00
10135;BME280;5107;48.850;8.924;2023-02-24T07:13:21;96086.59;;;6.82;100.00
10135;BME280;5107;48.850;8.924;2023-02-24T07:15:49;96078.59;;;6.75;100.00
10135;BME280;5107;48.850;8.924;2023-02-24T07:18:17;96080.84;;;6.70;100.00
10135;BME280;5107;48.850;8.924;2023-02-24T07:20:46;96085.91;;;6.72;100.00
10135;BME280;5107;48.850;8.924;2023-02-24T07:23:14;96076.63;;;6.69;100.00
10135;BME280;5107;48.850;8.924;2023-02-24T07:25:43;96072.53;;;6.67;100.00
10135;BME280;5107;48.850;8.924;2023-02-24T07:28:11;96073.00;;;6.70;100.00
10135;BME280;5107;48.850;8.924;2023-02-24T07:30:40;96067.78;;;6.70;100.00
10135;BME280;5107;48.850;8.924;2023-02-24T07:33:08;96070.22;;;6.72;100.00
10135;BME280;5107;48.850;8.924;2023-02-24T07:35:35;96068.44;;;6.72;100.00
10135;BME280;5107;48.850;8.924;2023-02-24T07:38:04;96063.06;;;6.74;100.00
10135;BME280;5107;48.850;8.924;2023-02-24T07:40:32;96067.47;;;6.81;100.00
10135;BME280;5107;48.850;8.924;2023-02-24T07:43:00;96061.25;;;6.91;100.00
10135;BME280;5107;48.850;8.924;2023-02-24T07:45:27;96065.16;;;6.95;100.00
10135;BME280;5107;48.850;8.924;2023-02-24T07:47:55;96063.56;;;6.94;100.00
10135;BME280;5107;48.850;8.924;2023-02-24T07:50:22;96062.75;;;6.93;100.00
10135;BME280;5107;48.850;8.924;2023-02-24T07:52:50;96054.09;;;6.93;100.00
10135;BME280;5107;48.850;8.924;2023-02-24T07:55:18;96068.44;;;6.97;100.00
10135;BME280;5107;48.850;8.924;2023-02-24T07:57:48;96062.75;;;7.01;100.00
10135;BME280;5107;48.850;8.924;2023-02-24T08:00:17;96055.38;;;7.05;100.00
10135;BME280;5107;48.850;8.924;2023-02-24T08:02:46;96053.56;;;7.05;100.00
10135;BME280;5107;48.850;8.924;2023-02-24T08:05:15;96052.28;;;7.09;100.00
10135;BME280;5107;48.850;8.924;2023-02-24T08:07:43;96052.59;;;7.14;100.00
10135;BME280;5107;48.850;8.924;2023-02-24T08:10:15;96052.28;;;7.17;100.00
10135;BME280;5107;48.850;8.924;2023-02-24T08:12:53;96050.63;;;7.24;100.00
10135;BME280;5107;48.850;8.924;2023-02-24T08:15:21;96054.53;;;7.29;100.00
10135;BME280;5107;48.850;8.924;2023-02-24T08:17:59;96048.50;;;7.20;100.00
10135;BME280;5107;48.850;8.924;2023-02-24T08:20:29;96052.59;;;7.22;100.00
10135;BME280;5107;48.850;8.924;2023-02-24T08:23:01;96046.69;;;7.20;100.00
10135;BME280;5107;48.850;8.924;2023-02-24T08:25:31;96053.56;;;7.21;100.00
10135;BME280;5107;48.850;8.924;2023-02-24T08:28:05;96046.53;;;7.22;100.00
10135;BME280;5107;48.850;8.924;2023-02-24T08:30:39;96034.44;;;7.21;100.00
10135;BME280;5107;48.850;8.924;2023-02-24T08:33:18;96031.50;;;7.24;100.00
10135;BME280;5107;48.850;8.924;2023-02-24T08:35:51;96031.34;;;7.17;100.00
10135;BME280;5107;48.850;8.924;2023-02-24T08:38:26;96023.47;;;7.26;100.00
10135;BME280;5107;48.850;8.924;2023-02-24T08:41:05;96028.38;;;7.29;100.00
10135;BME280;5107;48.850;8.924;2023-02-24T08:43:39;96026.56;;;7.29;100.00
10135;BME280;5107;48.850;8.924;2023-02-24T08:46:16;96030.66;;;7.32;100.00
10135;BME280;5107;48.850;8.924;2023-02-24T08:48:46;96028.03;;;7.40;100.00
10135;BME280;5107;48.850;8.924;2023-02-24T08:51:16;96025.38;;;7.48;100.00
10135;BME280;5107;48.850;8.924;2023-02-24T08:53:48;96012.63;;;7.53;100.00
10135;BME280;5107;48.850;8.924;2023-02-24T08:56:21;96013.09;;;7.56;100.00
10135;BME280;5107;48.850;8.924;2023-02-24T08:58:55;96007.53;;;7.59;99.63
10135;BME280;5107;48.850;8.924;2023-02-24T09:01:26;96016.47;;;7.73;99.49
10135;BME280;5107;48.850;8.924;2023-02-24T09:04:02;96013.34;;;7.86;98.58
10135;BME280;5107;48.850;8.924;2023-02-24T09:06:44;96013.47;;;7.92;98.07
10135;BME280;5107;48.850;8.924;2023-02-24T09:09:14;96012.75;;;7.98;97.84
10135;BME280;5107;48.850;8.924;2023-02-24T09:11:48;96011.66;;;7.93;96.75
10135;BME280;5107;48.850;8.924;2023-02-24T09:14:18;96008.34;;;7.99;97.36
10135;BME280;5107;48.850;8.924;2023-02-24T09:16:49;96002.09;;;8.08;97.68
10135;BME280;5107;48.850;8.924;2023-02-24T09:19:31;96000.22;;;8.17;96.96
10135;BME280;5107;48.850;8.924;2023-02-24T09:22:29;95997.72;;;8.23;96.44
10135;BME280;5107;48.850;8.924;2023-02-24T09:25:23;95991.97;;;8.36;95.82
10135;BME280;5107;48.850;8.924;2023-02-24T09:27:53;95993.88;;;8.42;95.85
10135;BME280;5107;48.850;8.924;2023-02-24T09:30:26;95995.09;;;8.54;95.47
10135;BME280;5107;48.850;8.924;2023-02-24T09:33:13;96001.28;;;8.61;95.46
10135;BME280;5107;48.850;8.924;2023-02-24T09:35:52;95999.94;;;8.65;94.78
10135;BME280;5107;48.850;8.924;2023-02-24T09:38:29;95997.25;;;8.73;94.83
10135;BME280;5107;48.850;8.924;2023-02-24T09:41:26;95995.94;;;8.78;94.02
10135;BME280;5107;48.850;8.924;2023-02-24T09:44:03;95988.47;;;9.04;94.15
10135;BME280;5107;48.850;8.924;2023-02-24T09:46:39;95987.38;;;9.13;92.71
10135;BME280;5107;48.850;8.924;2023-02-24T09:49:32;95979.16;;;9.01;92.34
10135;BME280;5107;48.850;8.924;2023-02-24T09:52:10;95973.72;;;9.03;92.22
10135;BME280;5107;48.850;8.924;2023-02-24T09:54:44;95975.53;;;9.02;92.25
10135;BME280;5107;48.850;8.924;2023-02-24T09:57:45;95968.66;;;9.01;91.84
10135;BME280;5107;48.850;8.924;2023-02-24T10:00:52;95961.75;;;8.86;91.24
10135;BME280;5107;48.850;8.924;2023-02-24T10:03:29;95966.34;;;8.84;92.46
10135;BME280;5107;48.850;8.924;2023-02-24T10:06:17;95967.69;;;8.80;92.83
10135;BME280;5107;48.850;8.924;2023-02-24T10:08:52;95979.53;;;8.75;93.08
10135;BME280;5107;48.850;8.924;2023-02-24T10:11:22;95980.06;;;8.71;92.55
10135;BME280;5107;48.850;8.924;2023-02-24T10:14:02;95971.16;;;8.57;93.11
10135;BME280;5107;48.850;8.924;2023-02-24T10:16:38;95970.41;;;8.49;93.14
10135;BME280;5107;48.850;8.924;2023-02-24T10:19:22;95970.28;;;8.42;93.59
10135;BME280;5107;48.850;8.924;2023-02-24T10:21:56;95966.69;;;8.43;94.45
10135;BME280;5107;48.850;8.924;2023-02-24T10:24:32;95966.25;;;8.31;94.32
10135;BME280;5107;48.850;8.924;2023-02-24T10:27:11;95966.13;;;8.25;94.51
10135;BME280;5107;48.850;8.924;2023-02-24T10:29:58;95964.97;;;8.27;94.49
10135;BME280;5107;48.850;8.924;2023-02-24T10:32:39;95958.13;;;8.18;94.30
10135;BME280;5107;48.850;8.924;2023-02-24T10:35:15;95957.41;;;8.32;94.87
10135;BME280;5107;48.850;8.924;2023-02-24T10:37:43;95955.78;;;8.31;94.76
10135;BME280;5107;48.850;8.924;2023-02-24T10:40:12;95954.03;;;8.47;96.74
10135;BME280;5107;48.850;8.924;2023-02-24T10:42:49;95944.88;;;8.65;96.87
10135;BME280;5107;48.850;8.924;2023-02-24T10:45:23;95951.09;;;8.64;94.43
10135;BME280;5107;48.850;8.924;2023-02-24T10:47:54;95943.34;;;8.71;93.57
10135;BME280;5107;48.850;8.924;2023-02-24T10:50:26;95938.06;;;8.56;92.70
10135;BME280;5107;48.850;8.924;2023-02-24T10:53:02;95942.97;;;8.59;93.71
10135;BME280;5107;48.850;8.924;2023-02-24T10:56:02;95931.50;;;8.75;94.56
10135;BME280;5107;48.850;8.924;2023-02-24T10:59:03;95930.63;;;8.97;94.14
10135;BME280;5107;48.850;8.924;2023-02-24T11:02:17;95927.03;;;8.98;92.44
10135;BME280;5107;48.850;8.924;2023-02-24T11:04:55;95915.53;;;8.99;93.27
10135;BME280;5107;48.850;8.924;2023-02-24T11:08:08;95917.50;;;8.83;92.14
10135;BME280;5107;48.850;8.924;2023-02-24T11:10:42;95914.34;;;8.87;92.11
10135;BME280;5107;48.850;8.924;2023-02-24T11:13:23;95916.53;;;8.98;91.71
10135;BME280;5107;48.850;8.924;2023-02-24T11:16:10;95905.50;;;9.03;92.19
10135;BME280;5107;48.850;8.924;2023-02-24T11:18:55;95897.91;;;9.08;91.93
10135;BME280;5107;48.850;8.924;2023-02-24T11:21:24;95903.06;;;9.01;92.21
10135;BME280;5107;48.850;8.924;2023-02-24T11:23:57;95893.81;;;9.05;90.02
10135;BME280;5107;48.850;8.924;2023-02-24T11:26:34;95891.91;;;8.85;90.87
10135;BME280;5107;48.850;8.924;2023-02-24T11:29:19;95875.94;;;8.57;91.01
10135;BME280;5107;48.850;8.924;2023-02-24T11:32:10;95878.88;;;8.62;90.76
10135;BME280;5107;48.850;8.924;2023-02-24T11:34:49;95871.59;;;8.49;92.17
10135;BME280;5107;48.850;8.924;2023-02-24T11:37:31;95861.66;;;8.45;92.66
10135;BME280;5107;48.850;8.924;2023-02-24T11:40:11;95853.06;;;8.36;92.32
10135;BME280;5107;48.850;8.924;2023-02-24T11:42:45;95843.56;;;8.35;92.77
10135;BME280;5107;48.850;8.924;2023-02-24T11:45:26;95815.00;;;8.55;92.98
10135;BME280;5107;48.850;8.924;2023-02-24T11:47:58;95812.69;;;8.60;92.08
10135;BME280;5107;48.850;8.924;2023-02-24T11:50:36;95821.97;;;8.62;91.87
10135;BME280;5107;48.850;8.924;2023-02-24T11:53:21;95821.19;;;8.77;91.61
10135;BME280;5107;48.850;8.924;2023-02-24T11:55:56;95818.56;;;8.77;91.01
10135;BME280;5107;48.850;8.924;2023-02-24T11:58:34;95815.31;;;8.74;90.23
10135;BME280;5107;48.850;8.924;2023-02-24T12:01:10;95804.56;;;8.69;90.12
10135;BME280;5107;48.850;8.924;2023-02-24T12:03:52;95796.84;;;8.83;90.58
10135;BME280;5107;48.850;8.924;2023-02-24T12:06:27;95792.31;;;8.91;88.67
10135;BME280;5107;48.850;8.924;2023-02-24T12:09:02;95785.72;;;9.10;88.05
10135;BME280;5107;48.850;8.924;2023-02-24T12:11:43;95775.63;;;9.13;88.50
10135;BME280;5107;48.850;8.924;2023-02-24T12:14:21;95769.03;;;9.18;86.88
10135;BME280;5107;48.850;8.924;2023-02-24T12:16:59;95763.75;;;9.32;86.66
10135;BME280;5107;48.850;8.924;2023-02-24T12:19:34;95751.38;;;9.47;86.86
10135;BME280;5107;48.850;8.924;2023-02-24T12:22:11;95751.53;;;9.61;84.27
10135;BME280;5107;48.850;8.924;2023-02-24T12:24:43;95744.75;;;9.73;84.47
10135;BME280;5107;48.850;8.924;2023-02-24T12:27:21;95749.78;;;9.68;83.93
10135;BME280;5107;48.850;8.924;2023-02-24T12:30:06;95738.69;;;9.51;82.83
10135;BME280;5107;48.850;8.924;2023-02-24T12:32:59;95752.09;;;9.77;83.27
10135;BME280;5107;48.850;8.924;2023-02-24T12:35:43;95745.56;;;9.95;82.47
10135;BME280;5107;48.850;8.924;2023-02-24T12:38:29;95740.78;;;10.05;81.72
10135;BME280;5107;48.850;8.924;2023-02-24T12:41:15;95741.44;;;10.13;81.87
10135;BME280;5107;48.850;8.924;2023-02-24T12:43:54;95734.47;;;10.20;81.15
10135;BME280;5107;48.850;8.924;2023-02-24T12:46:29;95728.72;;;10.10;80.98
10135;BME280;5107;48.850;8.924;2023-02-24T12:49:29;95726.91;;;9.89;81.38
10135;BME280;5107;48.850;8.924;2023-02-24T12:52:08;95726.88;;;9.83;81.48
10135;BME280;5107;48.850;8.924;2023-02-24T12:54:42;95727.00;;;9.75;81.97
10135;BME280;5107;48.850;8.924;2023-02-24T12:57:18;95723.00;;;9.58;81.62
10135;BME280;5107;48.850;8.924;2023-02-24T12:59:51;95721.94;;;9.52;83.21
10135;BME280;5107;48.850;8.924;2023-02-24T13:02:27;95719.56;;;9.36;82.86
10135;BME280;5107;48.850;8.924;2023-02-24T13:05:06;95715.63;;;9.25;83.36
10135;BME280;5107;48.850;8.924;2023-02-24T13:07:52;95720.50;;;9.28;84.53
10135;BME280;5107;48.850;8.924;2023-02-24T13:10:34;95709.66;;;9.17;84.91
10135;BME280;5107;48.850;8.924;2023-02-24T13:13:09;95705.25;;;9.17;86.17
10135;BME280;5107;48.850;8.924;2023-02-24T13:15:51;95699.22;;;9.02;86.16
10135;BME280;5107;48.850;8.924;2023-02-24T13:18:24;95697.31;;;8.96;86.58
10135;BME280;5107;48.850;8.924;2023-02-24T13:21:04;95691.72;;;8.99;85.81
10135;BME280;5107;48.850;8.924;2023-02-24T13:23:32;95686.91;;;9.02;86.21
10135;BME280;5107;48.850;8.924;2023-02-24T13:25:59;95685.84;;;8.97;85.32
10135;BME280;5107;48.850;8.924;2023-02-24T13:28:28;95686.47;;;8.99;85.35
10135;BME280;5107;48.850;8.924;2023-02-24T13:31:02;95680.47;;;9.05;85.48
10135;BME280;5107;48.850;8.924;2023-02-24T13:33:32;95674.50;;;9.11;85.76
10135;BME280;5107;48.850;8.924;2023-02-24T13:36:16;95668.44;;;9.10;85.27
10135;BME280;5107;48.850;8.924;2023-02-24T13:38:48;95660.25;;;9.20;85.07
10135;BME280;5107;48.850;8.924;2023-02-24T13:41:33;95656.25;;;9.24;85.66
10135;BME280;5107;48.850;8.924;2023-02-24T13:44:19;95656.47;;;9.29;85.60
10135;BME280;5107;48.850;8.924;2023-02-24T13:49:55;95655.75;;;9.35;84.86
10135;BME280;5107;48.850;8.924;2023-02-24T13:52:40;95649.28;;;9.38;84.61
10135;BME280;5107;48.850;8.924;2023-02-24T13:55:39;95644.81;;;9.32;84.89
10135;BME280;5107;48.850;8.924;2023-02-24T13:58:36;95642.91;;;9.47;85.35
10135;BME280;5107;48.850;8.924;2023-02-24T14:01:08;95640.50;;;9.45;84.81
10135;BME280;5107;48.850;8.924;2023-02-24T14:03:40;95643.69;;;9.41;84.69